createdAt,value
2018-12-18T00:02:13.879Z,101880.02
2018-12-18T00:04:43.332Z,101877.72
2018-12-18T00:07:13.077Z,101874.62
2018-12-18T00:09:42.539Z,101885.62
2018-12-18T00:12:12.058Z,101875.04
2018-12-18T00:14:41.468Z,101881.03
2018-12-18T00:17:10.972Z,101876.45
2018-12-18T00:19:40.380Z,101877.81
2018-12-18T00:22:10.400Z,101892.69
2018-12-18T00:24:39.770Z,101891.52
2018-12-18T00:27:09.196Z,101887.91
2018-12-18T00:29:38.625Z,101885.61
2018-12-18T00:32:08.019Z,101890.56
2018-12-18T00:34:37.456Z,101892.67
2018-12-18T00:37:06.857Z,101885.58
2018-12-18T00:39:36.253Z,101881.53
2018-12-18T00:42:05.769Z,101882.16
2018-12-18T00:44:36.127Z,101893.28
2018-12-18T00:47:05.522Z,101896.83
2018-12-18T00:49:34.920Z,101896.28
2018-12-18T00:52:04.603Z,101882.13
2018-12-18T00:54:34.088Z,101886.98
2018-12-18T00:57:03.609Z,101886.86
2018-12-18T00:59:33.058Z,101890.11
2018-12-18T01:02:02.475Z,101900.42
2018-12-18T01:04:32.897Z,101895.98
2018-12-18T01:07:02.356Z,101891.00
2018-12-18T01:09:31.958Z,101895.56
2018-12-18T01:12:01.381Z,101900.12
2018-12-18T01:14:30.793Z,101898.39
2018-12-18T01:17:00.881Z,101896.22
2018-12-18T01:19:30.382Z,101899.47
2018-12-18T01:21:59.884Z,101903.20
2018-12-18T01:24:29.420Z,101906.96
2018-12-18T01:26:59.693Z,101913.13
2018-12-18T01:29:29.148Z,101907.84
2018-12-18T01:31:58.561Z,101910.94
2018-12-18T01:34:28.025Z,101909.27
2018-12-18T01:36:58.503Z,101913.33
2018-12-18T01:39:27.934Z,101917.13
2018-12-18T01:41:57.358Z,101919.75
2018-12-18T01:44:26.797Z,101910.19
2018-12-18T01:46:56.227Z,101921.98
2018-12-18T01:49:25.602Z,101924.06
2018-12-18T01:51:55.520Z,101914.70
2018-12-18T01:54:24.932Z,101919.37
2018-12-18T01:56:54.417Z,101920.67
2018-12-18T01:59:23.868Z,101914.27
2018-12-18T02:01:53.285Z,101915.88
2018-12-18T02:04:22.698Z,101918.30
2018-12-18T02:06:52.212Z,101916.45
2018-12-18T02:09:21.714Z,101915.81
2018-12-18T02:11:51.322Z,101913.13
2018-12-18T02:14:45.418Z,101920.23
2018-12-18T02:17:14.860Z,101923.55
2018-12-18T02:19:44.300Z,101924.07
2018-12-18T02:22:13.724Z,101913.44
2018-12-18T02:24:43.191Z,101901.02
2018-12-18T02:27:12.588Z,101913.93
2018-12-18T02:29:41.996Z,101914.06
2018-12-18T02:32:11.562Z,101918.94
2018-12-18T02:34:40.993Z,101919.80
2018-12-18T02:37:10.434Z,101927.66
2018-12-18T02:39:39.885Z,101920.80
2018-12-18T02:42:09.269Z,101923.42
2018-12-18T02:44:38.696Z,101926.11
2018-12-18T02:47:08.241Z,101931.19
2018-12-18T02:49:39.635Z,101929.49
2018-12-18T02:52:10.106Z,101939.22
2018-12-18T02:54:39.549Z,101949.84
2018-12-18T05:23:47.441Z,101977.92
2018-12-18T05:31:27.101Z,101984.62
2018-12-18T05:34:15.078Z,101983.80
2018-12-18T05:37:13.273Z,101983.42
2018-12-18T05:39:49.070Z,101992.48
2018-12-18T05:45:55.346Z,102000.21
2018-12-18T05:51:59.314Z,101999.95
2018-12-18T06:04:03.753Z,102002.65
2018-12-18T06:06:45.522Z,102004.09
2018-12-18T06:09:15.171Z,102007.39
2018-12-18T06:11:44.563Z,102009.07
2018-12-18T06:14:17.201Z,102015.31
2018-12-18T06:16:46.656Z,102015.19
2018-12-18T06:19:16.129Z,102017.42
2018-12-18T06:21:46.008Z,102017.88
2018-12-18T06:24:15.406Z,102022.60
2018-12-18T06:26:44.816Z,102025.92
2018-12-18T06:32:14.319Z,102015.82
2018-12-18T06:34:43.821Z,102013.20
2018-12-18T06:37:13.222Z,102013.75
2018-12-18T06:39:43.573Z,102020.69
2018-12-18T06:42:13.063Z,102023.11
2018-12-18T06:44:42.458Z,102027.81
2018-12-18T06:47:11.895Z,102033.41
2018-12-18T06:49:41.295Z,102028.30
2018-12-18T06:52:10.719Z,102034.23
2018-12-18T06:57:46.891Z,102035.23
2018-12-18T07:00:16.396Z,102037.66
2018-12-18T07:02:45.856Z,102041.08
2018-12-18T07:05:16.906Z,102041.15
2018-12-18T07:07:46.763Z,102047.28
2018-12-18T07:10:16.306Z,102043.48
2018-12-18T07:12:45.762Z,102045.27
2018-12-18T07:15:15.294Z,102050.13
2018-12-18T07:17:44.722Z,102043.25
2018-12-18T07:20:14.117Z,102057.58
2018-12-18T07:22:43.510Z,102050.89
2018-12-18T07:25:13.015Z,102053.07
2018-12-18T07:27:42.402Z,102052.20
2018-12-18T07:30:12.025Z,102055.28
2018-12-18T07:32:41.413Z,102058.16
2018-12-18T07:35:10.789Z,102060.27
2018-12-18T07:37:40.893Z,102057.32
2018-12-18T07:40:10.352Z,102062.62
2018-12-18T07:42:39.830Z,102072.73
2018-12-18T07:45:09.318Z,102074.42
2018-12-18T07:47:38.661Z,102073.18
2018-12-18T07:50:08.360Z,102073.38
2018-12-18T07:52:38.402Z,102076.60
2018-12-18T07:55:07.959Z,102082.23
2018-12-18T07:57:37.361Z,102082.81
2018-12-18T08:00:07.182Z,102087.13
2018-12-18T08:02:36.531Z,102080.19
2018-12-18T08:05:06.475Z,102088.94
2018-12-18T08:07:35.916Z,102091.05
2018-12-18T08:10:06.078Z,102089.36
2018-12-18T08:12:36.146Z,102095.92
2018-12-18T08:15:06.140Z,102087.89
2018-12-18T08:17:35.556Z,102088.81
2018-12-18T08:20:05.317Z,102086.52
2018-12-18T08:22:34.729Z,102092.33
2018-12-18T08:25:04.516Z,102094.03
2018-12-18T08:27:33.955Z,102090.13
2018-12-18T08:30:03.500Z,102089.62
2018-12-18T08:35:28.228Z,102093.70
2018-12-18T08:37:57.610Z,102100.27
2018-12-18T08:40:26.985Z,102100.75
2018-12-18T08:42:56.385Z,102103.37
2018-12-18T08:45:25.810Z,102104.01
2018-12-18T08:47:55.244Z,102105.31
2018-12-18T08:50:24.971Z,102103.84
2018-12-18T08:52:54.407Z,102101.64
2018-12-18T08:55:24.067Z,102102.15
2018-12-18T08:57:53.449Z,102106.47
2018-12-18T09:00:22.818Z,102101.22
2018-12-18T09:02:52.327Z,102102.41
2018-12-18T09:05:21.809Z,102094.28
2018-12-18T09:07:52.394Z,102101.86
2018-12-18T09:10:21.911Z,102100.52
2018-12-18T09:12:51.377Z,102105.70
2018-12-18T09:15:26.010Z,102103.45
2018-12-18T09:17:55.416Z,102105.02
2018-12-18T09:23:21.629Z,102100.09
2018-12-18T09:25:51.035Z,102093.17
2018-12-18T09:28:20.412Z,102089.23
2018-12-18T09:30:50.777Z,102088.47
2018-12-18T09:33:20.143Z,102086.61
2018-12-18T09:35:49.934Z,102088.47
2018-12-18T09:38:25.040Z,102086.05
2018-12-18T09:40:59.679Z,102081.31
2018-12-18T09:43:34.314Z,102081.42
2018-12-18T09:46:04.082Z,102077.25
2018-12-18T09:48:33.451Z,102068.55
2018-12-18T09:51:03.041Z,102067.24
2018-12-18T09:53:32.519Z,102058.61
2018-12-18T09:56:01.943Z,102050.97
2018-12-18T09:58:31.604Z,102048.97
2018-12-18T10:01:01.046Z,102046.72
2018-12-18T10:03:33.415Z,102042.19
2018-12-18T10:06:02.003Z,102044.81
2018-12-18T10:08:31.583Z,102035.48
2018-12-18T10:11:00.983Z,102037.55
2018-12-18T10:13:30.529Z,102041.86
2018-12-18T10:15:59.957Z,102036.00
2018-12-18T10:18:29.384Z,102040.31
2018-12-18T10:20:58.818Z,102035.24
2018-12-18T10:23:28.425Z,102029.67
2018-12-18T10:25:57.831Z,102024.33
2018-12-18T10:28:27.200Z,102018.87
2018-12-18T10:30:56.661Z,102009.82
2018-12-18T10:33:26.050Z,102002.32
2018-12-18T10:35:55.534Z,102004.42
2018-12-18T10:38:24.960Z,101997.16
2018-12-18T10:40:54.338Z,102002.65
2018-12-18T10:43:23.849Z,102001.53
2018-12-18T10:45:53.358Z,102005.19
2018-12-18T10:48:22.704Z,102012.03
2018-12-18T10:50:52.203Z,102011.97
2018-12-18T10:53:21.704Z,102011.59
2018-12-18T10:55:51.354Z,102012.18
2018-12-18T10:58:23.943Z,102016.06
2018-12-18T11:03:59.230Z,102003.45
2018-12-18T11:06:28.624Z,102003.83
2018-12-18T11:08:58.032Z,102001.76
2018-12-18T11:11:39.561Z,102004.77
2018-12-18T11:14:08.969Z,102000.49
2018-12-18T11:17:03.366Z,101997.64
2018-12-18T11:19:32.791Z,101992.95
2018-12-18T11:22:02.181Z,101988.52
2018-12-18T11:24:31.582Z,101982.36
2018-12-18T11:27:00.985Z,101975.16
2018-12-18T11:29:31.363Z,101981.66
2018-12-18T11:32:00.742Z,101973.47
2018-12-18T11:34:30.162Z,101970.04
2018-12-18T11:36:59.539Z,101974.48
2018-12-18T11:39:28.906Z,101969.97
2018-12-18T11:41:58.290Z,101974.59
2018-12-18T11:44:27.689Z,101975.08
2018-12-18T11:46:57.151Z,101979.10
2018-12-18T11:49:26.659Z,101970.19
2018-12-18T11:51:56.102Z,101966.59
2018-12-18T11:54:25.499Z,101961.64
2018-12-18T11:56:55.025Z,101962.20
2018-12-18T11:59:24.485Z,101945.34
2018-12-18T12:01:53.890Z,101952.70
2018-12-18T12:04:23.277Z,101948.98
2018-12-18T12:06:52.712Z,101944.63
2018-12-18T12:09:22.102Z,101947.97
2018-12-18T12:11:51.527Z,101940.57
2018-12-18T12:14:20.450Z,101944.03
2018-12-18T12:16:48.887Z,101940.12
2018-12-18T12:19:18.362Z,101936.56
2018-12-18T12:21:47.914Z,101933.94
2018-12-18T12:24:17.335Z,101931.48
2018-12-18T12:26:49.961Z,101936.83
2018-12-18T12:29:19.376Z,101930.17
2018-12-18T12:31:48.880Z,101933.94
2018-12-18T12:34:18.364Z,101938.77
2018-12-18T12:36:47.752Z,101933.73
2018-12-18T12:39:17.185Z,101931.83
2018-12-18T12:41:47.670Z,101935.31
2018-12-18T12:44:17.067Z,101940.50
2018-12-18T12:46:46.469Z,101924.16
2018-12-18T12:49:15.914Z,101921.60
2018-12-18T12:51:45.409Z,101911.70
2018-12-18T12:54:14.858Z,101910.59
2018-12-18T12:56:44.287Z,101900.88
2018-12-18T13:02:09.390Z,101897.72
2018-12-18T13:04:38.778Z,101901.10
2018-12-18T13:07:08.214Z,101908.31
2018-12-18T13:09:37.889Z,101907.87
2018-12-18T13:12:07.294Z,101916.13
2018-12-18T13:14:36.757Z,101914.82
2018-12-18T13:17:06.597Z,101918.83
2018-12-18T13:19:36.004Z,101914.37
2018-12-18T13:22:05.506Z,101921.23
2018-12-18T13:24:34.985Z,101924.24
2018-12-18T13:27:04.396Z,101918.61
2018-12-18T13:29:34.243Z,101913.43
2018-12-18T13:32:05.197Z,101902.77
2018-12-18T13:34:34.603Z,101899.61
2018-12-18T13:37:03.932Z,101890.64
2018-12-18T13:39:33.417Z,101885.09
2018-12-18T13:42:02.829Z,101877.13
2018-12-18T13:44:32.289Z,101869.75
2018-12-18T13:47:01.645Z,101863.66
2018-12-18T13:49:31.044Z,101862.05
2018-12-18T13:52:00.405Z,101855.68
2018-12-18T13:54:30.834Z,101858.50
2018-12-18T13:57:00.349Z,101853.58
2018-12-18T13:59:29.738Z,101853.35
2018-12-18T14:02:00.034Z,101852.05
2018-12-18T14:04:29.517Z,101858.09
2018-12-18T14:06:58.907Z,101858.98
2018-12-18T14:09:28.397Z,101865.25
2018-12-18T14:11:57.798Z,101863.15
2018-12-18T14:14:27.187Z,101863.38
2018-12-18T14:16:56.718Z,101861.20
2018-12-18T14:19:26.288Z,101860.59
2018-12-18T14:21:55.671Z,101864.61
2018-12-18T14:24:25.010Z,101860.19
2018-12-18T14:26:54.434Z,101853.25
2018-12-18T14:29:23.811Z,101852.12
2018-12-18T14:31:53.157Z,101861.20
2018-12-18T14:34:22.583Z,101855.75
2018-12-18T14:36:56.187Z,101863.88
2018-12-18T14:39:23.517Z,101861.48
2018-12-18T14:41:52.884Z,101861.79
2018-12-18T14:44:21.370Z,101863.66
2018-12-18T14:46:50.786Z,101873.85
2018-12-18T14:49:20.172Z,101873.06
2018-12-18T14:51:49.552Z,101876.38
2018-12-18T14:54:19.301Z,101870.67
2018-12-18T14:56:48.688Z,101874.00
2018-12-18T14:59:18.161Z,101872.69
2018-12-18T15:01:47.656Z,101871.70
2018-12-18T15:04:17.056Z,101865.67
2018-12-18T15:06:46.460Z,101864.05
2018-12-18T15:09:16.033Z,101856.41
2018-12-18T15:11:45.432Z,101851.16
2018-12-18T15:14:14.793Z,101852.85
2018-12-18T15:16:44.975Z,101855.16
2018-12-18T15:19:14.535Z,101860.52
2018-12-18T15:21:43.976Z,101857.79
2018-12-18T15:24:14.413Z,101855.16
2018-12-18T15:26:43.919Z,101860.73
2018-12-18T15:29:13.446Z,101858.90
2018-12-18T15:31:42.841Z,101845.78
2018-12-18T15:34:12.252Z,101846.09
2018-12-18T15:36:41.664Z,101854.48
2018-12-18T15:39:11.061Z,101853.02
2018-12-18T15:41:40.483Z,101848.88
2018-12-18T15:44:09.920Z,101853.64
2018-12-18T15:46:39.305Z,101849.02
2018-12-18T15:49:08.798Z,101847.55
2018-12-18T15:51:38.188Z,101845.17
2018-12-18T15:54:07.656Z,101842.62
2018-12-18T15:56:37.193Z,101853.36
2018-12-18T15:59:06.569Z,101850.34
2018-12-18T16:01:35.947Z,101852.72
2018-12-18T16:04:05.551Z,101845.95
2018-12-18T16:06:34.929Z,101846.54
2018-12-18T16:09:06.069Z,101843.69
2018-12-18T16:11:35.617Z,101847.16
2018-12-18T16:14:06.257Z,101851.09
2018-12-18T16:16:35.796Z,101857.73
2018-12-18T16:19:05.325Z,101861.73
2018-12-18T16:21:34.724Z,101861.44
2018-12-18T16:24:04.285Z,101856.80
2018-12-18T16:26:33.693Z,101867.22
2018-12-18T16:29:03.072Z,101865.75
2018-12-18T16:31:32.490Z,101852.50
2018-12-18T16:34:01.949Z,101861.76
2018-12-18T16:48:59.188Z,101831.59
2018-12-18T16:51:28.598Z,101833.42
2018-12-18T16:53:58.001Z,101828.35
2018-12-18T16:56:27.409Z,101818.70
2018-12-18T16:58:56.972Z,101828.17
2018-12-18T17:01:26.403Z,101833.42
2018-12-18T17:43:52.083Z,101807.67
2018-12-18T17:46:41.710Z,101806.87
2018-12-18T17:49:11.566Z,101808.05
2018-12-18T17:51:41.158Z,101801.94
2018-12-18T17:54:10.715Z,101807.00
2018-12-18T17:56:41.180Z,101819.40
2018-12-18T17:59:10.653Z,101820.45
2018-12-18T18:01:40.057Z,101814.84
2018-12-18T18:07:24.896Z,101822.00
2018-12-18T18:10:01.779Z,101812.27
2018-12-18T18:12:54.937Z,101814.61
2018-12-18T18:15:24.624Z,101817.04
2018-12-18T18:17:54.229Z,101824.77
2018-12-18T18:20:24.201Z,101826.20
2018-12-18T18:23:12.062Z,101816.72
2018-12-18T18:25:41.634Z,101816.69
2018-12-18T18:28:11.087Z,101815.83
2018-12-18T18:30:40.531Z,101808.45
2018-12-18T18:33:09.998Z,101812.56
2018-12-18T18:35:39.450Z,101808.34
2018-12-18T18:38:08.973Z,101807.84
2018-12-18T18:40:38.489Z,101800.38
2018-12-18T18:43:07.949Z,101808.73
2018-12-18T18:45:55.524Z,101812.66
2018-12-18T18:48:32.878Z,101812.81
2018-12-18T18:51:05.823Z,101812.07
2018-12-18T18:53:39.291Z,101808.89
2018-12-18T18:56:18.983Z,101810.05
2018-12-18T18:58:54.490Z,101805.55
2018-12-18T19:01:29.920Z,101797.78
2018-12-18T19:04:06.026Z,101787.08
2018-12-18T19:06:46.344Z,101783.86
2018-12-18T19:09:19.252Z,101780.02
2018-12-18T19:15:21.503Z,101771.78
2018-12-18T19:18:07.087Z,101760.00
2018-12-18T19:21:03.474Z,101742.12
2018-12-18T19:26:38.748Z,101735.08
2018-12-18T19:29:13.728Z,101738.08
2018-12-18T19:32:12.151Z,101730.62
2018-12-18T19:34:41.621Z,101730.51
2018-12-18T19:40:15.146Z,101728.73
2018-12-18T19:42:44.620Z,101717.30
2018-12-18T19:45:15.662Z,101713.77
2018-12-18T19:47:52.926Z,101712.14
2018-12-18T19:50:25.485Z,101709.86
2018-12-18T19:55:58.324Z,101705.49
2018-12-18T19:58:27.922Z,101700.39
2018-12-18T20:00:58.711Z,101697.72
2018-12-18T20:03:40.221Z,101683.08
2018-12-18T20:06:34.233Z,101688.16
2018-12-18T20:15:37.558Z,101671.84
2018-12-18T20:21:12.248Z,101667.80
2018-12-18T20:23:41.934Z,101662.91
2018-12-18T20:26:18.247Z,101655.13
2018-12-18T20:29:06.281Z,101645.88
2018-12-18T20:31:35.690Z,101641.37
2018-12-18T20:34:05.504Z,101646.44
2018-12-18T20:36:35.128Z,101634.63
2018-12-18T20:39:07.626Z,101631.91
2018-12-18T20:41:37.130Z,101625.77
2018-12-18T20:44:06.749Z,101625.48
2018-12-18T20:46:36.372Z,101618.90
2018-12-18T20:52:25.797Z,101615.51
2018-12-18T20:55:13.482Z,101606.83
2018-12-18T20:57:43.173Z,101610.09
2018-12-18T21:00:15.024Z,101603.89
2018-12-18T21:03:00.266Z,101602.27
2018-12-18T21:05:29.732Z,101586.02
2018-12-18T21:07:59.644Z,101594.70
2018-12-18T21:13:35.146Z,101590.90
2018-12-18T21:22:14.735Z,101578.30
2018-12-18T21:24:44.590Z,101573.29
2018-12-18T21:27:14.225Z,101572.37
2018-12-18T21:29:43.683Z,101561.55
2018-12-18T21:32:13.268Z,101564.22
2018-12-18T21:34:42.818Z,101554.64
2018-12-18T21:37:12.409Z,101569.89
2018-12-18T21:39:42.708Z,101571.19
2018-12-18T21:42:12.134Z,101563.89
2018-12-18T21:44:41.938Z,101563.89
2018-12-18T21:47:11.411Z,101570.16
2018-12-18T21:49:41.021Z,101573.73
2018-12-18T21:52:10.562Z,101566.68
2018-12-18T21:54:40.029Z,101571.13
2018-12-18T21:57:09.519Z,101567.04
2018-12-18T21:59:38.976Z,101565.97
2018-12-18T22:02:08.593Z,101563.30
2018-12-18T22:04:38.342Z,101561.73
2018-12-18T22:07:07.942Z,101559.06
2018-12-18T22:09:37.560Z,101555.92
2018-12-18T22:12:07.220Z,101548.89
2018-12-18T22:14:36.764Z,101552.69
2018-12-18T22:17:06.295Z,101545.51
2018-12-18T22:19:35.939Z,101536.17
2018-12-18T22:22:05.526Z,101546.00
2018-12-18T22:24:35.130Z,101543.21
2018-12-18T22:27:04.852Z,101542.35
2018-12-18T22:29:34.455Z,101537.53
2018-12-18T22:32:04.132Z,101540.67
2018-12-18T22:34:33.755Z,101538.66
2018-12-18T22:37:03.237Z,101534.92
2018-12-18T22:39:33.014Z,101528.59
2018-12-18T22:42:02.617Z,101514.98
2018-12-18T22:44:32.128Z,101523.25
2018-12-18T22:47:01.766Z,101519.39
2018-12-18T22:49:31.248Z,101516.93
2018-12-18T22:52:00.910Z,101499.89
2018-12-18T22:54:30.601Z,101493.04
2018-12-18T22:57:00.325Z,101493.19
2018-12-18T22:59:30.609Z,101483.80
2018-12-18T23:02:02.404Z,101479.11
2018-12-18T23:04:32.302Z,101483.34
2018-12-18T23:07:02.085Z,101469.12
2018-12-18T23:09:31.817Z,101458.62
2018-12-18T23:12:01.960Z,101454.70
2018-12-18T23:14:31.518Z,101455.73
2018-12-18T23:17:01.130Z,101444.66
2018-12-18T23:19:30.758Z,101442.57
2018-12-18T23:22:00.438Z,101443.72
2018-12-18T23:24:30.069Z,101438.78
2018-12-18T23:26:59.709Z,101435.47
2018-12-18T23:29:29.518Z,101428.23
2018-12-18T23:32:00.172Z,101429.28
2018-12-18T23:34:33.008Z,101422.38
2018-12-18T23:37:01.835Z,101408.66
2018-12-18T23:39:31.442Z,101410.45
2018-12-18T23:42:01.284Z,101403.98
2018-12-18T23:44:30.913Z,101394.86
2018-12-18T23:47:00.431Z,101396.88
2018-12-18T23:49:30.102Z,101393.95
2018-12-18T23:51:59.605Z,101384.84
2018-12-18T23:54:29.275Z,101380.06
